Time;durP1;ratioP1;P1;durP2;ratioP2;P2;SDS_P1;SDS_P2;PMS_P1;PMS_P2;Temp;Humidity;BMP_temperature;BMP_pressure;BME280_temperature;BME280_humidity;BME280_pressure;Samples;Min_cycle;Max_cycle;Signal;HPM_P1;HPM_P2
2024/01/10 00:00:44;;;;;;;21.20;12.97;;;-4.60;99.90;;;-4.03;76.88;98768.25;10409283;28;20320;-63
2024/01/10 00:05:49;;;;;;;20.33;14.17;;;-4.60;99.90;;;-4.03;75.89;98769.81;10408313;28;20300;-67
2024/01/10 00:10:54;;;;;;;23.13;15.87;;;-4.60;99.90;;;-3.92;73.97;98777.06;10456413;28;20235;-63
2024/01/10 00:15:58;;;;;;;21.13;14.07;;;-4.60;99.90;;;-4.02;74.89;98764.16;10496104;28;20724;-64
2024/01/10 00:21:03;;;;;;;20.83;14.60;;;-4.60;99.90;;;-3.97;75.05;98768.13;10493176;28;20232;-64
2024/01/10 00:26:06;;;;;;;20.33;14.53;;;-4.50;99.90;;;-3.91;75.55;98762.31;10489278;28;20934;-64
2024/01/10 00:31:09;;;;;;;21.67;15.10;;;-4.40;99.90;;;-3.82;73.41;98755.06;10431376;28;20233;-64
2024/01/10 00:36:14;;;;;;;22.00;15.97;;;-4.40;99.90;;;-3.83;73.40;98753.28;10460821;28;20242;-66
2024/01/10 00:41:17;;;;;;;20.47;15.03;;;-4.40;99.90;;;-3.78;73.95;98759.72;10464724;28;20724;-64
2024/01/10 00:46:20;;;;;;;20.30;14.87;;;-4.40;99.90;;;-3.87;71.91;98758.59;10456603;28;20251;-65
2024/01/10 00:51:25;;;;;;;22.87;14.80;;;-4.40;99.90;;;-3.83;71.75;98768.28;10466123;28;20224;-65
2024/01/10 00:56:28;;;;;;;20.70;13.33;;;-4.40;99.90;;;-3.88;71.98;98754.31;10481175;28;20304;-65
2024/01/10 01:01:31;;;;;;;22.90;14.57;;;-4.40;99.90;;;-3.85;73.45;98752.19;10409825;28;20237;-65
2024/01/10 01:06:36;;;;;;;20.57;14.33;;;-4.40;99.90;;;-3.82;73.35;98757.56;10488219;28;20223;-65
2024/01/10 01:11:39;;;;;;;17.03;13.73;;;-4.40;99.90;;;-3.80;73.96;98768.66;10488477;28;20229;-65
2024/01/10 01:16:42;;;;;;;17.60;14.30;;;-4.30;99.90;;;-3.72;73.90;98770.53;10486855;28;20223;-65
2024/01/10 01:21:46;;;;;;;21.17;14.53;;;-4.30;99.90;;;-3.73;72.17;98770.31;10490922;28;20230;-65
2024/01/10 01:26:50;;;;;;;19.40;14.73;;;-4.30;99.90;;;-3.80;71.69;98777.75;10480060;28;20248;-65
2024/01/10 01:31:53;;;;;;;19.47;13.77;;;-4.30;99.90;;;-3.77;71.12;98779.03;10418301;28;20583;-65
2024/01/10 01:36:58;;;;;;;18.47;13.63;;;-4.30;99.90;;;-3.79;71.86;98782.94;10426656;28;20604;-64
2024/01/10 01:42:02;;;;;;;21.13;15.07;;;-4.30;99.90;;;-3.77;73.03;98779.03;10468606;28;20224;-65
2024/01/10 01:47:05;;;;;;;21.33;15.27;;;-4.30;99.90;;;-3.69;72.11;98768.41;10476363;28;20544;-64
2024/01/10 01:52:10;;;;;;;22.77;15.60;;;-4.30;99.90;;;-3.67;74.27;98766.09;10430793;28;20238;-66
2024/01/10 01:57:13;;;;;;;22.37;15.90;;;-4.20;99.90;;;-3.63;74.38;98773.28;10449684;28;20228;-64
2024/01/10 02:02:18;;;;;;;23.97;15.57;;;-4.20;99.90;;;-3.62;74.65;98775.94;10443755;28;20889;-64
2024/01/10 02:07:23;;;;;;;21.00;15.27;;;-4.20;99.90;;;-3.57;74.25;98773.16;10409161;28;20225;-64
2024/01/10 02:12:27;;;;;;;23.47;15.67;;;-4.20;99.90;;;-3.60;73.45;98768.66;10444888;28;20650;-65
2024/01/10 02:17:30;;;;;;;20.00;14.13;;;-4.20;99.90;;;-3.55;74.66;98761.72;10469917;28;20240;-64
2024/01/10 02:22:34;;;;;;;20.80;14.33;;;-4.10;99.90;;;-3.64;72.37;98757.38;10447932;28;20226;-65
2024/01/10 02:27:40;;;;;;;20.33;14.40;;;-4.20;99.90;;;-3.74;72.03;98756.94;10413786;28;20252;-65
2024/01/10 02:32:44;;;;;;;19.13;14.23;;;-4.30;99.90;;;-3.67;73.33;98761.97;10413027;28;20229;-65
2024/01/10 02:37:49;;;;;;;18.07;13.87;;;-4.20;99.90;;;-3.57;73.24;98755.66;10407935;28;20220;-65
2024/01/10 02:42:54;;;;;;;21.23;14.40;;;-4.30;99.90;;;-3.59;73.38;98742.09;10450450;28;20598;-64
2024/01/10 02:47:57;;;;;;;22.57;15.40;;;-4.20;99.90;;;-3.69;74.94;98745.94;10483361;28;20239;-65
2024/01/10 02:53:00;;;;;;;21.90;14.50;;;-4.20;99.90;;;-3.66;73.55;98746.31;10487991;28;20235;-65
2024/01/10 02:58:05;;;;;;;21.93;15.47;;;-4.30;99.90;;;-3.64;74.71;98737.38;10431199;28;20226;-65
2024/01/10 03:03:08;;;;;;;20.30;14.27;;;-4.20;99.90;;;-3.70;73.90;98741.63;10440957;28;20247;-65
2024/01/10 03:08:11;;;;;;;20.07;14.40;;;-4.20;99.90;;;-3.66;74.01;98745.41;10410656;28;20244;-64
2024/01/10 03:13:16;;;;;;;20.90;14.67;;;-4.30;99.90;;;-3.73;73.78;98736.25;10413042;28;20229;-65
2024/01/10 03:18:19;;;;;;;19.53;14.43;;;-4.30;99.90;;;-3.69;73.60;98740.00;10407175;28;20727;-64
2024/01/10 03:23:22;;;;;;;18.57;13.10;;;-4.20;99.90;;;-3.63;73.52;98726.72;10410096;28;20238;-64
2024/01/10 03:28:27;;;;;;;19.50;13.33;;;-4.20;99.90;;;-3.49;72.42;98727.50;10410699;28;20584;-64
2024/01/10 03:33:30;;;;;;;20.53;13.20;;;-4.20;99.90;;;-3.52;73.05;98732.13;10411937;28;20252;-64
2024/01/10 03:38:33;;;;;;;21.07;13.83;;;-4.10;99.90;;;-3.48;73.82;98721.84;10485839;28;20235;-65
2024/01/10 03:43:38;;;;;;;20.53;14.17;;;-4.10;99.90;;;-3.41;72.47;98725.25;10493905;28;20872;-64
2024/01/10 03:48:47;;;;;;;19.83;14.17;;;-4.10;99.90;;;-3.55;73.06;98719.25;10499354;28;20238;-64
2024/01/10 03:53:51;;;;;;;20.83;14.57;;;-4.10;99.90;;;-3.52;72.72;98727.13;10496805;28;20235;-66
2024/01/10 03:58:56;;;;;;;18.73;14.87;;;-4.10;99.90;;;-3.42;72.53;98717.59;10492385;28;20244;-63
2024/01/10 04:03:59;;;;;;;20.20;15.53;;;-4.00;99.90;;;-3.34;72.57;98711.94;10496183;28;20228;-65
2024/01/10 04:09:02;;;;;;;23.20;13.93;;;-3.90;99.90;;;-3.32;74.17;98715.53;10493998;28;20244;-64
2024/01/10 04:14:07;;;;;;;19.93;14.30;;;-3.90;99.90;;;-3.26;73.98;98713.78;10494585;28;20294;-63
2024/01/10 04:19:10;;;;;;;19.83;14.70;;;-3.80;99.90;;;-3.28;74.56;98717.69;10435155;28;20302;-63
2024/01/10 04:24:14;;;;;;;19.00;13.70;;;-3.80;99.90;;;-3.43;72.25;98718.31;10490212;28;20237;-64
2024/01/10 04:29:18;;;;;;;20.70;14.87;;;-4.00;99.90;;;-3.24;72.50;98717.34;10493864;28;20286;-64
2024/01/10 04:34:22;;;;;;;19.03;15.23;;;-3.90;99.90;;;-3.30;72.54;98716.59;10430980;28;20233;-64
2024/01/10 04:39:26;;;;;;;25.07;16.23;;;-3.90;99.90;;;-3.40;72.80;98719.56;10414101;28;20272;-64
2024/01/10 04:44:30;;;;;;;22.67;15.80;;;-4.00;99.90;;;-3.45;74.07;98718.09;10460096;28;20695;-64
2024/01/10 04:49:33;;;;;;;26.00;17.10;;;-4.00;99.90;;;-3.38;73.32;98717.25;10488402;28;20318;-64
2024/01/10 04:54:36;;;;;;;22.33;15.73;;;-4.00;99.90;;;-3.45;72.73;98708.09;10490550;28;20230;-64
2024/01/10 04:59:41;;;;;;;19.13;14.57;;;-4.00;99.90;;;-3.38;72.80;98718.84;10489369;28;20268;-64
2024/01/10 05:04:44;;;;;;;22.53;14.73;;;-3.90;99.90;;;-3.46;72.81;98718.81;10485147;28;20247;-64
2024/01/10 05:09:47;;;;;;;18.03;13.73;;;-4.00;99.90;;;-3.31;72.47;98719.81;10488601;28;20224;-64
2024/01/10 05:14:52;;;;;;;19.37;14.10;;;-3.90;99.90;;;-3.20;74.20;98713.66;10490821;28;20225;-64
2024/01/10 05:19:55;;;;;;;19.20;14.47;;;-3.80;99.90;;;-3.19;73.31;98716.31;10437368;28;20247;-65
2024/01/10 05:24:58;;;;;;;19.33;14.43;;;-3.80;99.90;;;-3.07;73.88;98718.53;10464184;28;20231;-65
2024/01/10 05:30:03;;;;;;;20.37;14.90;;;-3.70;99.90;;;-3.12;72.76;98719.56;10430031;28;20225;-65
2024/01/10 05:35:07;;;;;;;22.97;15.00;;;-3.70;99.90;;;-3.09;73.04;98707.44;10474723;28;20220;-64
2024/01/10 05:40:11;;;;;;;22.30;15.40;;;-3.70;99.90;;;-3.02;74.12;98720.88;10465517;28;20660;-65
2024/01/10 05:45:18;;;;;;;21.40;15.53;;;-3.60;99.90;;;-3.04;73.16;98713.91;10492305;28;20246;-64
2024/01/10 05:50:21;;;;;;;20.73;14.97;;;-3.60;99.90;;;-2.92;72.84;98722.91;10453814;28;20225;-64
2024/01/10 05:55:24;;;;;;;22.27;15.53;;;-3.60;99.90;;;-2.89;73.63;98717.38;10418631;28;20229;-65
2024/01/10 06:00:29;;;;;;;22.83;14.67;;;-3.50;99.90;;;-2.97;72.37;98723.97;10412293;28;20237;-63
2024/01/10 06:05:32;;;;;;;22.57;15.93;;;-3.60;99.90;;;-2.95;72.98;98717.53;10426193;28;20221;-64
2024/01/10 06:10:35;;;;;;;22.13;16.97;;;-3.60;99.90;;;-2.94;72.46;98714.34;10450368;28;20236;-63
2024/01/10 06:15:41;;;;;;;28.27;17.43;;;-3.60;99.90;;;-3.06;72.32;98717.81;10447301;28;20262;-65
2024/01/10 06:20:45;;;;;;;26.60;18.10;;;-3.60;99.90;;;-2.76;72.17;98719.06;10486959;28;20228;-65
2024/01/10 06:25:48;;;;;;;27.47;17.67;;;-3.50;99.90;;;-2.90;73.01;98721.50;10491452;28;20224;-65
2024/01/10 06:30:52;;;;;;;26.10;16.63;;;-3.50;99.90;;;-2.95;72.11;98728.44;10487256;28;20225;-65
2024/01/10 06:35:56;;;;;;;32.40;19.10;;;-3.60;99.90;;;-2.94;73.80;98736.84;10433577;28;20320;-65
2024/01/10 06:40:59;;;;;;;25.67;17.63;;;-3.50;99.90;;;-2.90;72.79;98741.50;10465471;28;20235;-65
2024/01/10 06:46:04;;;;;;;25.43;15.50;;;-3.50;99.90;;;-2.76;71.73;98741.56;10429499;28;20232;-69
2024/01/10 06:51:12;;;;;;;22.10;16.67;;;-3.40;99.90;;;-2.90;72.62;98746.50;10418593;28;20244;-63
2024/01/10 06:56:15;;;;;;;25.07;17.40;;;-3.50;99.90;;;-2.98;72.40;98747.16;10479605;28;20686;-65
2024/01/10 07:01:21;;;;;;;22.73;16.17;;;-3.50;99.90;;;-2.92;73.33;98747.91;10491227;28;20238;-64
2024/01/10 07:06:25;;;;;;;22.33;15.63;;;-3.40;99.90;;;-2.84;74.22;98757.25;10488928;28;20228;-65
2024/01/10 07:11:29;;;;;;;22.63;16.13;;;-3.40;99.90;;;-2.83;74.99;98750.63;10490127;28;20231;-66
2024/01/10 07:16:34;;;;;;;26.53;16.97;;;-3.40;99.90;;;-2.80;74.07;98744.44;10490115;28;20771;-63
2024/01/10 07:21:39;;;;;;;23.77;17.60;;;-3.40;99.90;;;-2.86;75.02;98743.69;10416048;28;21027;-64
2024/01/10 07:26:42;;;;;;;24.30;17.13;;;-3.40;99.90;;;-2.76;76.13;98744.06;10418715;28;20729;-64
2024/01/10 07:31:46;;;;;;;25.20;16.07;;;-3.30;99.90;;;-2.67;75.88;98750.91;10421976;28;20282;-65
2024/01/10 07:36:54;;;;;;;22.37;16.40;;;-3.30;99.90;;;-2.62;75.87;98757.38;10424340;28;20279;-65
2024/01/10 07:41:57;;;;;;;25.90;17.57;;;-3.30;99.90;;;-2.59;75.31;98763.66;10428925;28;20236;-65
2024/01/10 07:47:01;;;;;;;37.90;24.70;;;-3.20;99.90;;;-2.62;76.02;98772.38;10459054;28;20705;-63
2024/01/10 07:52:05;;;;;;;24.80;17.83;;;-3.30;99.90;;;-2.55;76.16;98782.41;10489218;28;20323;-64
2024/01/10 07:57:08;;;;;;;24.23;18.03;;;-3.20;99.90;;;-2.44;73.14;98782.13;10437650;28;20606;-64
2024/01/10 08:02:13;;;;;;;25.17;18.83;;;-3.20;99.90;;;-2.59;75.10;98785.28;10463217;28;20234;-65
2024/01/10 08:07:16;;;;;;;26.57;19.53;;;-3.20;99.90;;;-2.67;76.11;98790.94;10490053;28;20596;-64
2024/01/10 08:12:19;;;;;;;25.00;17.90;;;-3.30;99.90;;;-2.61;76.60;98796.69;10491308;28;20233;-64
2024/01/10 08:17:24;;;;;;;26.60;19.73;;;-3.30;99.90;;;-2.47;75.68;98805.88;10451337;28;20231;-68
2024/01/10 08:22:27;;;;;;;28.23;19.93;;;-3.10;99.90;;;-2.42;74.99;98802.34;10414449;28;20217;-64
2024/01/10 08:27:31;;;;;;;25.67;18.93;;;-3.00;99.90;;;-2.29;74.99;98809.03;10409906;28;20308;-64
2024/01/10 08:32:36;;;;;;;25.43;19.90;;;-2.90;99.90;;;-1.99;73.26;98805.91;10421362;28;20233;-66
2024/01/10 08:37:42;;;;;;;25.73;18.03;;;-2.70;99.90;;;-1.64;71.62;98806.72;10494753;28;20812;-65
2024/01/10 08:42:45;;;;;;;25.03;18.40;;;-2.30;99.90;;;-1.48;69.33;98815.34;10468757;28;20633;-65
2024/01/10 08:47:50;;;;;;;24.20;18.27;;;-2.20;99.90;;;-1.04;69.30;98816.25;10494508;28;20233;-68
2024/01/10 08:52:53;;;;;;;24.60;18.87;;;-1.80;99.90;;;-0.92;69.08;98812.66;10415846;28;20240;-66
2024/01/10 08:57:56;;;;;;;27.77;19.50;;;-1.50;99.90;;;-0.60;67.80;98816.41;10480335;28;20233;-65
2024/01/10 09:03:01;;;;;;;24.83;19.80;;;-1.30;99.90;;;-0.42;66.40;98820.13;10410366;28;20229;-66
2024/01/10 09:08:05;;;;;;;28.37;20.17;;;-0.90;99.90;;;-0.07;63.53;98816.59;10409945;28;20563;-65
2024/01/10 09:13:09;;;;;;;30.13;20.93;;;-0.70;99.90;;;-0.42;64.55;98829.28;10415549;28;20614;-65
2024/01/10 09:18:13;;;;;;;52.60;28.50;;;-0.90;99.90;;;-0.07;64.03;98826.63;10418699;28;20222;-65
2024/01/10 09:23:16;;;;;;;25.77;20.07;;;-0.70;99.90;;;-0.31;63.96;98831.41;10420568;28;20700;-65
2024/01/10 09:28:20;;;;;;;28.63;21.10;;;-1.00;99.90;;;-0.48;64.37;98830.34;10475918;28;20221;-65
2024/01/10 09:33:25;;;;;;;31.33;21.87;;;-1.00;99.90;;;-0.28;64.35;98830.13;10432519;28;20233;-65
2024/01/10 09:38:28;;;;;;;30.10;20.77;;;-0.90;99.90;;;-0.25;63.33;98832.09;10477779;28;20372;-65
2024/01/10 09:43:33;;;;;;;26.90;20.87;;;-0.90;99.90;;;-0.08;63.55;98842.44;10417506;28;20321;-65
2024/01/10 09:48:38;;;;;;;30.60;22.30;;;-0.70;99.90;;;0.09;63.01;98839.31;10409977;28;20286;-65
2024/01/10 09:53:50;;;;;;;30.60;22.00;;;-0.50;99.90;;;0.52;61.98;98845.75;10436462;28;20237;-65
2024/01/10 09:58:56;;;;;;;30.87;22.20;;;-0.10;99.90;;;0.14;62.64;98843.25;10407560;28;20239;-66
2024/01/10 10:04:02;;;;;;;31.17;23.47;;;-0.40;99.90;;;0.11;62.76;98837.84;10410769;28;20224;-68
2024/01/10 10:09:08;;;;;;;32.60;22.53;;;-0.50;99.90;;;0.56;60.98;98833.69;10471549;28;20715;-67
2024/01/10 10:14:16;;;;;;;33.40;23.53;;;-0.10;99.90;;;0.28;62.53;98832.22;10468971;28;20326;-67
2024/01/10 10:19:26;;;;;;;34.13;24.80;;;-0.30;99.90;;;0.34;62.22;98832.91;10409083;28;20280;-66
2024/01/10 10:24:44;;;;;;;30.90;22.93;;;-0.30;99.90;;;0.72;61.43;98822.81;10431518;28;20230;-68
2024/01/10 10:29:47;;;;;;;39.30;27.50;;;0.00;99.90;;;0.44;61.83;98830.69;10484685;28;20224;-68
2024/01/10 10:34:52;;;;;;;33.77;24.03;;;-0.20;99.90;;;0.83;62.13;98823.25;10454215;28;20228;-68
2024/01/10 10:39:55;;;;;;;34.07;23.77;;;0.10;99.90;;;0.58;61.15;98813.75;10473049;28;20237;-67
2024/01/10 10:45:04;;;;;;;31.53;22.73;;;0.10;99.90;;;0.67;60.59;98808.09;10487953;28;20307;-66
2024/01/10 10:50:14;;;;;;;31.67;23.90;;;0.10;99.90;;;0.92;61.03;98815.81;10487146;28;20379;-67
2024/01/10 10:55:19;;;;;;;30.60;23.37;;;0.30;99.90;;;0.84;60.51;98811.56;10459519;28;20223;-64
2024/01/10 11:00:26;;;;;;;32.73;23.83;;;0.30;99.90;;;0.48;61.41;98816.84;10481871;28;21379;-65
2024/01/10 11:05:33;;;;;;;32.87;24.07;;;0.00;99.90;;;0.59;61.11;98813.88;10490077;28;20232;-65
2024/01/10 11:10:40;;;;;;;35.97;24.50;;;0.20;99.90;;;0.96;60.24;98806.97;10485117;28;20265;-67
2024/01/10 11:16:33;;;;;;;33.07;25.00;;;0.30;99.90;;;1.16;60.74;98801.59;10460549;28;20274;-65
2024/01/10 11:21:53;;;;;;;31.87;23.07;;;0.60;99.90;;;1.38;60.59;98805.69;10454997;28;20217;-65
2024/01/10 11:27:09;;;;;;;28.33;21.53;;;0.70;99.90;;;1.74;59.19;98805.31;10429319;28;20227;-64
2024/01/10 11:32:16;;;;;;;36.60;25.63;;;1.00;99.90;;;1.48;58.73;98800.00;10457203;28;20318;-64
2024/01/10 11:37:21;;;;;;;32.33;24.47;;;0.90;99.90;;;1.50;60.05;98794.41;10411868;28;20236;-64
2024/01/10 11:42:24;;;;;;;34.73;24.67;;;0.80;99.90;;;1.58;59.06;98797.75;10415363;28;20242;-64
2024/01/10 11:47:28;;;;;;;30.77;23.83;;;0.90;99.90;;;1.43;59.55;98791.06;10448053;28;20646;-65
2024/01/10 11:52:36;;;;;;;33.70;24.73;;;0.80;99.90;;;1.56;60.64;98787.50;10454471;28;20231;-64
2024/01/10 11:57:40;;;;;;;35.00;24.63;;;0.90;99.90;;;1.66;60.29;98791.00;10461723;28;20236;-64
2024/01/10 12:02:47;;;;;;;34.07;24.33;;;0.90;99.90;;;1.76;58.47;98792.13;10480864;28;20714;-66
2024/01/10 12:07:53;;;;;;;35.73;23.77;;;1.10;99.90;;;1.69;59.64;98788.78;10461108;28;20226;-64
2024/01/10 12:12:57;;;;;;;35.03;24.50;;;1.00;99.90;;;1.84;59.43;98787.03;10410592;28;20235;-63
2024/01/10 12:18:01;;;;;;;31.77;23.70;;;1.20;99.90;;;1.62;59.96;98787.25;10413368;28;20233;-64
2024/01/10 12:23:06;;;;;;;32.17;22.63;;;1.00;99.90;;;1.79;58.66;98786.53;10449162;28;20223;-65
2024/01/10 12:28:09;;;;;;;33.70;24.20;;;1.20;99.90;;;1.67;60.56;98778.56;10414704;28;20322;-63
2024/01/10 12:33:12;;;;;;;32.33;23.90;;;1.10;99.90;;;1.65;60.60;98784.19;10408578;28;20237;-65
2024/01/10 12:38:18;;;;;;;33.73;24.53;;;1.00;99.90;;;1.52;60.24;98774.44;10478595;28;20473;-64
2024/01/10 12:43:21;;;;;;;31.73;21.83;;;0.90;99.90;;;2.11;59.14;98763.78;10447818;28;20232;-64
2024/01/10 12:48:24;;;;;;;32.30;24.10;;;1.40;99.90;;;1.87;60.46;98765.56;10413980;28;20248;-65
2024/01/10 12:53:31;;;;;;;33.17;25.60;;;1.30;99.90;;;2.10;60.51;98774.63;10466952;28;20231;-66
2024/01/10 12:58:36;;;;;;;32.37;24.07;;;1.30;99.90;;;2.28;59.63;98768.06;10489867;28;20235;-64
2024/01/10 13:03:40;;;;;;;35.93;25.60;;;1.40;99.90;;;1.77;59.49;98776.31;10494993;28;20228;-64
2024/01/10 13:08:45;;;;;;;32.60;23.83;;;1.20;99.90;;;1.73;61.39;98765.72;10491594;28;20230;-65
2024/01/10 13:13:48;;;;;;;33.23;23.47;;;1.10;99.90;;;1.96;60.45;98765.63;10429609;28;20896;-66
2024/01/10 13:18:53;;;;;;;36.33;24.50;;;1.20;99.90;;;1.93;61.08;98762.78;10443930;28;20233;-64
2024/01/10 13:23:58;;;;;;;34.10;24.43;;;1.20;99.90;;;2.08;60.55;98759.31;10411724;28;20244;-63
2024/01/10 13:29:02;;;;;;;34.00;23.70;;;1.30;99.90;;;1.97;61.32;98765.75;10410466;28;20296;-65
2024/01/10 13:34:07;;;;;;;33.83;23.77;;;1.20;99.90;;;2.22;60.98;98768.31;10472641;28;20219;-64
2024/01/10 13:39:15;;;;;;;35.63;25.30;;;1.40;99.90;;;2.12;61.26;98769.00;10489639;28;20719;-64
2024/01/10 13:44:18;;;;;;;35.23;24.63;;;1.40;99.90;;;2.43;59.47;98765.50;10421020;28;20225;-64
2024/01/10 13:49:22;;;;;;;35.13;24.40;;;1.70;99.90;;;2.43;59.94;98764.59;10415358;28;20705;-67
2024/01/10 13:54:27;;;;;;;34.53;23.97;;;1.70;99.90;;;2.64;59.26;98764.28;10475192;28;20239;-64
2024/01/10 13:59:30;;;;;;;33.50;24.80;;;2.00;99.90;;;2.28;61.08;98771.47;10463674;28;20613;-64
2024/01/10 14:04:33;;;;;;;32.70;23.47;;;1.60;99.90;;;2.36;60.27;98764.72;10460774;28;20979;-63
2024/01/10 14:09:37;;;;;;;35.30;25.17;;;1.50;99.90;;;2.37;59.73;98762.34;10443412;28;20330;-65
2024/01/10 14:14:40;;;;;;;36.00;24.50;;;1.70;99.90;;;2.32;60.78;98755.94;10446550;28;20227;-64
2024/01/10 14:19:44;;;;;;;32.47;25.27;;;1.60;99.90;;;2.57;60.32;98748.34;10460309;28;20236;-66
2024/01/10 14:24:48;;;;;;;33.23;24.57;;;1.70;99.90;;;2.36;60.12;98757.16;10482596;28;20230;-64
2024/01/10 14:29:51;;;;;;;34.57;25.53;;;1.70;99.90;;;2.28;61.45;98765.53;10431152;28;20239;-64
2024/01/10 14:34:54;;;;;;;34.03;24.67;;;1.60;99.90;;;2.29;61.83;98760.69;10408552;28;21107;-65
2024/01/10 14:39:59;;;;;;;30.83;23.03;;;1.50;99.90;;;2.20;62.87;98759.69;10453378;28;20772;-66
2024/01/10 14:45:03;;;;;;;35.70;25.77;;;1.50;99.90;;;2.14;62.71;98764.13;10446616;28;20610;-65
2024/01/10 14:50:08;;;;;;;37.23;25.87;;;1.40;99.90;;;2.13;62.63;98752.25;10421936;28;20224;-63
2024/01/10 14:55:13;;;;;;;33.10;24.97;;;1.40;99.90;;;2.25;62.39;98749.34;10427617;28;20771;-64
2024/01/10 15:00:17;;;;;;;37.17;26.90;;;1.50;99.90;;;2.13;62.69;98747.22;10482454;28;20238;-65
2024/01/10 15:05:21;;;;;;;37.10;26.40;;;1.40;99.90;;;2.03;63.56;98750.38;10493830;28;20224;-64
2024/01/10 15:10:27;;;;;;;40.90;27.80;;;1.30;99.90;;;1.85;64.53;98761.06;10486665;28;20435;-65
2024/01/10 15:15:32;;;;;;;43.00;29.37;;;1.10;99.90;;;1.77;65.13;98768.75;10462586;28;20239;-65
2024/01/10 15:20:36;;;;;;;39.20;29.00;;;1.00;99.90;;;1.62;67.00;98767.09;10402886;28;20597;-65
2024/01/10 15:25:40;;;;;;;44.77;30.57;;;0.80;99.90;;;1.48;67.42;98778.22;10432689;28;20499;-65
2024/01/10 15:30:43;;;;;;;41.03;30.57;;;0.70;99.90;;;1.27;69.56;98781.88;10483018;28;20238;-64
2024/01/10 15:35:52;;;;;;;42.57;29.10;;;0.50;99.90;;;1.11;69.05;98788.50;10486804;28;20222;-66
2024/01/10 15:41:00;;;;;;;39.83;28.50;;;0.30;99.90;;;0.98;69.20;98790.44;10460793;28;20628;-65
2024/01/10 15:46:04;;;;;;;39.27;27.47;;;0.20;99.90;;;0.80;71.10;98792.75;10483905;28;20235;-64
2024/01/10 15:51:07;;;;;;;37.37;28.07;;;0.00;99.90;;;0.64;72.37;98801.84;10496011;28;20231;-65
2024/01/10 15:56:13;;;;;;;36.27;26.07;;;-0.20;99.90;;;0.41;72.21;98810.25;10487244;28;20228;-64
2024/01/10 16:01:16;;;;;;;41.77;28.70;;;-0.40;99.90;;;0.32;72.93;98821.78;10446920;28;20224;-66
2024/01/10 16:06:20;;;;;;;42.27;29.57;;;-0.50;99.90;;;0.18;73.16;98815.22;10488987;28;20281;-64
2024/01/10 16:11:25;;;;;;;39.27;27.80;;;-0.60;99.90;;;0.05;74.82;98821.19;10467682;28;20258;-66
2024/01/10 16:16:28;;;;;;;42.60;30.40;;;-0.70;99.90;;;-0.08;75.91;98824.84;10478637;28;20247;-64
2024/01/10 16:21:33;;;;;;;44.43;32.73;;;-0.90;99.90;;;-0.22;75.56;98824.91;10432838;28;20228;-64
2024/01/10 16:26:38;;;;;;;50.13;32.30;;;-1.00;99.90;;;-0.35;75.54;98832.63;10408861;28;22199;-65
2024/01/10 16:31:41;;;;;;;37.03;26.20;;;-1.10;99.90;;;-0.42;75.53;98829.28;10459999;28;20235;-66
2024/01/10 16:36:44;;;;;;;36.90;26.40;;;-1.20;99.90;;;-0.44;75.71;98829.09;10420467;28;20227;-65
2024/01/10 16:41:48;;;;;;;34.00;25.17;;;-1.20;99.90;;;-0.54;76.34;98823.75;10477329;28;20230;-65
2024/01/10 16:46:52;;;;;;;33.50;23.37;;;-1.30;99.90;;;-0.64;76.34;98836.84;10476514;28;20223;-65
2024/01/10 16:51:56;;;;;;;32.37;23.73;;;-1.40;99.90;;;-0.67;76.38;98831.47;10476584;28;20240;-65
2024/01/10 16:57:00;;;;;;;33.63;24.77;;;-1.40;99.90;;;-0.63;77.11;98833.63;10452180;28;20877;-65
2024/01/10 17:02:04;;;;;;;33.67;25.03;;;-1.40;99.90;;;-0.36;77.26;98840.03;10455631;28;20317;-65
2024/01/10 17:07:08;;;;;;;35.20;24.90;;;-1.20;99.90;;;-0.33;76.14;98840.38;10407255;28;20242;-65
2024/01/10 17:12:13;;;;;;;34.13;23.63;;;-1.20;99.90;;;-0.37;76.01;98843.22;10402692;28;20236;-65
2024/01/10 17:17:16;;;;;;;29.97;22.37;;;-1.30;99.90;;;-0.50;76.18;98850.97;10433776;28;20237;-65
2024/01/10 17:22:19;;;;;;;30.97;21.13;;;-1.40;99.90;;;-0.69;76.95;98852.97;10455324;28;20229;-65
2024/01/10 17:27:23;;;;;;;36.20;24.83;;;-1.60;99.90;;;-0.88;78.44;98852.47;10476434;28;20603;-65
2024/01/10 17:32:27;;;;;;;32.80;24.47;;;-1.70;99.90;;;-0.92;78.33;98858.75;10417250;28;20305;-65
2024/01/10 17:37:30;;;;;;;32.13;24.07;;;-1.70;99.90;;;-1.07;78.77;98861.94;10440520;28;20732;-65
2024/01/10 17:42:35;;;;;;;32.63;24.23;;;-1.80;99.90;;;-1.06;79.15;98858.75;10437285;28;21043;-66
2024/01/10 17:47:38;;;;;;;35.93;25.50;;;-1.80;99.90;;;-1.13;78.54;98847.06;10457869;28;20223;-65
2024/01/10 17:52:41;;;;;;;35.57;24.27;;;-1.90;99.90;;;-1.25;79.46;98850.66;10452783;28;20234;-64
2024/01/10 17:57:46;;;;;;;34.13;24.80;;;-1.90;99.90;;;-1.28;80.25;98859.44;10412549;28;20230;-65
2024/01/10 18:02:49;;;;;;;38.00;25.13;;;-1.90;99.90;;;-1.32;81.03;98855.63;10413453;28;20237;-65
2024/01/10 18:07:52;;;;;;;30.37;24.20;;;-2.00;99.90;;;-1.39;81.24;98860.66;10416758;28;20229;-65
2024/01/10 18:12:57;;;;;;;35.70;25.13;;;-2.10;99.90;;;-1.44;82.22;98855.09;10478071;28;20729;-65
2024/01/10 18:18:00;;;;;;;36.23;25.47;;;-2.10;99.90;;;-1.57;81.09;98854.38;10484499;28;20216;-65
2024/01/10 18:23:04;;;;;;;33.30;24.10;;;-2.30;99.90;;;-1.59;81.53;98865.81;10483965;28;20232;-65
2024/01/10 18:28:08;;;;;;;38.47;26.70;;;-2.30;99.90;;;-1.64;83.53;98867.75;10431350;28;20221;-65
2024/01/10 18:33:11;;;;;;;35.20;23.90;;;-2.40;99.90;;;-1.64;83.01;98874.38;10419345;28;20255;-64
2024/01/10 18:38:16;;;;;;;39.60;26.93;;;-2.40;99.90;;;-1.83;83.54;98872.19;10473760;28;20228;-64
2024/01/10 18:43:22;;;;;;;37.97;25.37;;;-2.50;99.90;;;-1.80;83.72;98879.19;10480137;28;20243;-66
2024/01/10 18:48:25;;;;;;;35.90;25.53;;;-2.50;99.90;;;-1.94;83.26;98880.00;10485897;28;20990;-65
2024/01/10 18:53:28;;;;;;;36.03;25.97;;;-2.60;99.90;;;-1.96;83.92;98883.94;10489081;28;20223;-65
2024/01/10 18:58:33;;;;;;;40.00;25.90;;;-2.60;99.90;;;-2.03;84.70;98883.91;10489340;28;20774;-64
2024/01/10 19:03:36;;;;;;;34.50;25.97;;;-2.60;99.90;;;-2.01;83.65;98889.09;10484729;28;20234;-65
2024/01/10 19:08:39;;;;;;;36.23;26.60;;;-2.70;99.90;;;-2.05;84.20;98885.31;10481252;28;20297;-65
2024/01/10 19:13:48;;;;;;;44.30;27.77;;;-2.60;99.90;;;-2.08;84.41;98889.97;10440190;28;20996;-65
2024/01/10 19:18:51;;;;;;;43.17;29.30;;;-2.70;99.90;;;-2.17;83.76;98882.22;10497779;28;20236;-64
2024/01/10 19:23:55;;;;;;;43.47;28.27;;;-2.70;99.90;;;-2.14;83.99;98880.09;10486834;28;20227;-65
2024/01/10 19:28:59;;;;;;;48.53;32.47;;;-2.80;99.90;;;-2.17;85.30;98881.34;10492723;28;20224;-66
2024/01/10 19:34:02;;;;;;;49.50;32.27;;;-2.80;99.90;;;-2.16;84.32;98888.13;10496419;28;20232;-71
2024/01/10 19:39:06;;;;;;;52.23;34.53;;;-2.70;99.90;;;-2.19;85.85;98888.66;10481568;28;20224;-65
2024/01/10 19:44:10;;;;;;;51.57;33.23;;;-2.80;99.90;;;-2.23;85.46;98886.50;10437219;28;21019;-65
2024/01/10 19:49:13;;;;;;;52.73;33.23;;;-2.80;99.90;;;-2.23;85.82;98893.06;10422035;28;20236;-65
2024/01/10 19:54:16;;;;;;;49.57;33.07;;;-2.80;99.90;;;-2.27;85.20;98897.72;10417187;28;20245;-65
2024/01/10 19:59:21;;;;;;;46.50;30.80;;;-2.90;99.90;;;-2.37;87.24;98894.81;10418475;28;20265;-65
2024/01/10 20:04:24;;;;;;;43.70;31.83;;;-2.90;99.90;;;-2.32;86.29;98888.75;10417094;28;20230;-64
2024/01/10 20:09:27;;;;;;;44.23;32.03;;;-3.00;99.90;;;-2.38;87.34;98887.97;10466825;28;20228;-65
2024/01/10 20:14:32;;;;;;;47.10;32.10;;;-3.00;99.90;;;-2.43;87.58;98899.06;10446490;28;20220;-64
2024/01/10 20:19:41;;;;;;;50.17;33.70;;;-3.10;99.90;;;-2.60;87.02;98893.59;10492750;28;20243;-64
2024/01/10 20:24:44;;;;;;;45.50;32.30;;;-3.30;99.90;;;-2.66;87.87;98892.78;10443152;28;20221;-65
2024/01/10 20:29:49;;;;;;;49.50;32.60;;;-3.30;99.90;;;-2.70;87.85;98896.53;10411768;28;20367;-65
2024/01/10 20:34:52;;;;;;;55.13;35.83;;;-3.30;99.90;;;-2.65;87.40;98887.09;10414967;28;20228;-65
2024/01/10 20:39:58;;;;;;;53.00;34.93;;;-3.30;99.90;;;-2.69;87.17;98887.41;10407765;28;20232;-65
2024/01/10 20:45:03;;;;;;;50.83;34.37;;;-3.40;99.90;;;-2.79;88.04;98896.28;10413499;28;20232;-65